Aviation Digital Data Service (ADDS)

Output produced by METARs form (1424 UTC 27 March 2017)
found at http://aviationweather.gov/adds/metars/
 
KMPV 271337Z 2714/2812 19012G20KT 5SM -RA BR OVC012 
     TEMPO 2714/2718 6SM -RA BR OVC009 
     FM272000 17005KT P6SM VCSH OVC015 
     FM280000 00000KT 4SM BR OVC008 
     FM280900 00000KT P6SM OVC015